Time;durP1;ratioP1;P1;durP2;ratioP2;P2;SDS_P1;SDS_P2;PMS_P1;PMS_P2;Temp;Humidity;BMP_temperature;BMP_pressure;BME280_temperature;BME280_humidity;BME280_pressure;Samples;Min_cycle;Max_cycle;Signal;HPM_P1;HPM_P2
2022/07/29 00:02:02;;;;;;;1.83;1.00;;;21.70;67.10;;;;;;5038958;28;20021;-83
2022/07/29 00:04:28;;;;;;;3.55;1.15;;;21.70;67.10;;;;;;5055423;28;20021;-83
2022/07/29 00:06:53;;;;;;;3.75;1.17;;;21.60;67.20;;;;;;5038897;28;20459;-82
2022/07/29 00:09:19;;;;;;;3.22;0.90;;;21.60;67.20;;;;;;5039133;28;20025;-83
2022/07/29 00:11:45;;;;;;;3.97;1.00;;;21.60;67.20;;;;;;5057039;28;20359;-83
2022/07/29 00:14:10;;;;;;;3.33;1.05;;;21.50;67.30;;;;;;5038959;28;20577;-83
2022/07/29 00:16:36;;;;;;;3.20;1.10;;;21.50;67.50;;;;;;5039096;28;20056;-83
2022/07/29 00:19:03;;;;;;;3.47;1.10;;;21.50;67.60;;;;;;5055736;28;20581;-83
2022/07/29 00:21:29;;;;;;;3.55;1.23;;;21.50;67.70;;;;;;5055738;28;20021;-83
2022/07/29 00:23:54;;;;;;;4.38;1.15;;;21.50;67.70;;;;;;5038703;28;20534;-83
2022/07/29 00:26:20;;;;;;;3.88;1.30;;;21.40;67.80;;;;;;5055644;28;20025;-83
2022/07/29 00:28:46;;;;;;;2.25;1.17;;;21.40;67.80;;;;;;5055137;28;20466;-83
2022/07/29 00:31:12;;;;;;;3.47;1.15;;;21.40;67.90;;;;;;5038566;28;20020;-83
2022/07/29 00:33:37;;;;;;;5.13;1.25;;;21.40;68.20;;;;;;5038381;28;20059;-83
2022/07/29 00:36:03;;;;;;;3.53;1.20;;;21.30;68.20;;;;;;5055324;28;20029;-83
2022/07/29 00:38:29;;;;;;;1.95;1.20;;;21.30;68.50;;;;;;5038271;28;20035;-83
2022/07/29 00:40:55;;;;;;;2.60;1.15;;;21.30;68.40;;;;;;5038734;28;20032;-83
2022/07/29 00:43:20;;;;;;;3.33;1.45;;;21.30;68.50;;;;;;5054660;28;20045;-83
2022/07/29 00:45:46;;;;;;;3.33;1.10;;;21.20;68.50;;;;;;5054770;28;20029;-84
2022/07/29 00:48:12;;;;;;;3.30;1.23;;;21.20;68.50;;;;;;5054944;28;20124;-83
2022/07/29 00:50:38;;;;;;;3.13;1.10;;;21.20;69.30;;;;;;5054580;28;20108;-83
2022/07/29 00:53:06;;;;;;;4.55;1.17;;;21.20;68.80;;;;;;5057141;28;20021;-84
2022/07/29 00:55:32;;;;;;;5.07;1.55;;;21.20;68.70;;;;;;5058069;28;20024;-84
2022/07/29 00:57:59;;;;;;;2.90;1.10;;;21.10;68.80;;;;;;5058518;28;20029;-84
2022/07/29 01:00:27;;;;;;;3.17;1.27;;;21.10;68.80;;;;;;5058829;28;20029;-84
2022/07/29 01:02:53;;;;;;;3.67;1.20;;;21.10;69.00;;;;;;5058281;28;20021;-84
2022/07/29 01:05:25;;;;;;;3.63;1.30;;;21.10;69.20;;;;;;5043960;28;20119;-84
2022/07/29 01:07:53;;;;;;;3.75;1.38;;;21.10;69.50;;;;;;5057397;28;20021;-84
2022/07/29 01:10:20;;;;;;;3.75;1.35;;;21.00;69.50;;;;;;5058505;28;20414;-84
2022/07/29 01:12:49;;;;;;;3.60;1.40;;;21.00;69.60;;;;;;5058166;28;20053;-84
2022/07/29 01:15:15;;;;;;;3.80;1.35;;;21.00;69.80;;;;;;5056627;28;20115;-84
2022/07/29 01:17:50;;;;;;;2.22;1.20;;;21.00;69.80;;;;;;5037613;28;20434;-84
2022/07/29 01:21:00;;;;;;;2.63;1.30;;;21.00;70.00;;;;;;5054292;28;20029;-84
2022/07/29 01:24:03;;;;;;;2.42;1.20;;;20.90;70.10;;;;;;5047202;28;20076;-84
2022/07/29 01:26:29;;;;;;;3.83;1.30;;;20.90;70.10;;;;;;5054798;28;20032;-84
2022/07/29 01:29:17;;;;;;;3.47;1.33;;;20.90;70.20;;;;;;5054421;28;20064;-83
2022/07/29 01:31:57;;;;;;;3.63;1.25;;;20.90;70.40;;;;;;5058458;28;20060;-85
2022/07/29 01:34:47;;;;;;;5.30;1.42;;;20.80;70.40;;;;;;5057957;28;20029;-84
2022/07/29 01:37:23;;;;;;;5.47;1.55;;;20.90;70.50;;;;;;5057174;28;20020;-84
2022/07/29 01:39:53;;;;;;;6.97;1.80;;;20.80;70.60;;;;;;5057692;28;20025;-84
2022/07/29 01:42:27;;;;;;;3.83;1.50;;;20.80;70.70;;;;;;5056779;28;20457;-84
2022/07/29 01:45:13;;;;;;;6.03;1.80;;;20.80;70.60;;;;;;5057314;28;20043;-84
2022/07/29 01:47:55;;;;;;;2.45;1.58;;;20.70;70.80;;;;;;5055810;28;20091;-84
2022/07/29 01:50:26;;;;;;;4.28;1.70;;;20.80;70.90;;;;;;5054671;28;20100;-84
2022/07/29 01:53:06;;;;;;;5.25;1.55;;;20.70;70.90;;;;;;5056128;28;20040;-84
2022/07/29 01:55:38;;;;;;;4.70;1.73;;;20.70;71.10;;;;;;5053807;28;20090;-84
2022/07/29 01:58:05;;;;;;;4.57;1.50;;;20.70;71.20;;;;;;5053281;28;20025;-84
2022/07/29 02:00:33;;;;;;;5.70;1.65;;;20.70;71.20;;;;;;5053261;28;20032;-84
2022/07/29 02:03:05;;;;;;;5.05;1.70;;;20.60;71.10;;;;;;5039566;28;20021;-84
2022/07/29 02:05:33;;;;;;;5.00;1.40;;;20.60;71.10;;;;;;5053823;28;20054;-84
2022/07/29 02:08:00;;;;;;;6.60;2.25;;;20.60;71.30;;;;;;5039592;28;20025;-84
2022/07/29 02:10:31;;;;;;;3.42;1.55;;;20.60;71.70;;;;;;5041067;28;20029;-84
2022/07/29 02:12:58;;;;;;;4.47;1.50;;;20.60;72.10;;;;;;5052982;28;20021;-83
2022/07/29 02:15:26;;;;;;;6.50;1.45;;;20.50;72.50;;;;;;5053503;28;20108;-84
2022/07/29 02:17:58;;;;;;;3.65;1.67;;;20.50;72.70;;;;;;5052487;28;20056;-83
2022/07/29 02:20:26;;;;;;;2.80;1.48;;;20.50;72.80;;;;;;5053587;28;20052;-83
2022/07/29 02:22:54;;;;;;;4.68;1.50;;;20.40;73.20;;;;;;5035929;28;20359;-83
2022/07/29 02:25:21;;;;;;;4.18;1.45;;;20.50;73.60;;;;;;5035937;28;20064;-81
2022/07/29 02:27:50;;;;;;;4.05;1.50;;;20.40;73.60;;;;;;5052648;28;20040;-84
2022/07/29 02:30:16;;;;;;;4.05;1.58;;;20.40;73.80;;;;;;5054540;28;20021;-84
2022/07/29 02:32:45;;;;;;;4.43;1.80;;;20.40;74.20;;;;;;5037040;28;20025;-84
2022/07/29 02:35:13;;;;;;;4.97;1.50;;;20.40;74.70;;;;;;5037417;28;20405;-84
2022/07/29 02:37:40;;;;;;;3.78;1.80;;;20.40;75.30;;;;;;5053144;28;20021;-84
2022/07/29 02:40:10;;;;;;;5.45;1.83;;;20.30;75.70;;;;;;5036368;28;20116;-84
2022/07/29 02:42:37;;;;;;;5.78;1.50;;;20.30;76.10;;;;;;5052650;28;20068;-84
2022/07/29 02:45:04;;;;;;;2.70;1.50;;;20.30;76.70;;;;;;5037253;28;20048;-84
2022/07/29 02:47:36;;;;;;;6.25;2.15;;;20.20;77.20;;;;;;5053751;28;20021;-84
2022/07/29 02:50:08;;;;;;;5.03;1.60;;;20.20;77.70;;;;;;5052807;28;20469;-84
2022/07/29 02:52:55;;;;;;;2.80;1.52;;;20.20;78.30;;;;;;5054049;28;20116;-84
2022/07/29 02:55:54;;;;;;;7.00;1.90;;;20.20;78.90;;;;;;5053437;28;20017;-83
2022/07/29 02:58:32;;;;;;;5.30;1.63;;;20.20;79.70;;;;;;5052265;28;20055;-84
2022/07/29 03:01:02;;;;;;;4.88;1.55;;;20.10;80.00;;;;;;5052462;28;20045;-84
2022/07/29 03:03:36;;;;;;;4.63;1.77;;;20.10;80.40;;;;;;5052284;28;20025;-84
2022/07/29 03:06:04;;;;;;;2.80;1.60;;;20.10;80.90;;;;;;5052466;28;20017;-84
2022/07/29 03:08:32;;;;;;;4.95;1.77;;;20.00;81.30;;;;;;5053969;28;20104;-84
2022/07/29 03:10:58;;;;;;;7.78;1.80;;;20.00;81.70;;;;;;5038667;28;20100;-85
2022/07/29 03:13:25;;;;;;;4.43;2.03;;;20.00;82.00;;;;;;5041790;28;20021;-85
2022/07/29 03:15:53;;;;;;;3.67;1.90;;;19.90;82.50;;;;;;5038249;28;20063;-84
2022/07/29 03:18:19;;;;;;;4.57;1.95;;;19.90;82.80;;;;;;5056667;28;20062;-84
2022/07/29 03:20:45;;;;;;;3.28;1.67;;;19.90;83.20;;;;;;5037118;28;20028;-83
2022/07/29 03:23:10;;;;;;;4.63;1.95;;;19.80;83.60;;;;;;5035256;28;20052;-84
2022/07/29 03:25:43;;;;;;;4.03;1.70;;;19.80;84.00;;;;;;5035506;28;20025;-83
2022/07/29 03:28:08;;;;;;;4.70;1.65;;;19.80;84.40;;;;;;5052081;28;20111;-84
2022/07/29 03:30:34;;;;;;;3.33;1.70;;;19.80;84.60;;;;;;5037428;28;20053;-84
2022/07/29 03:33:00;;;;;;;5.32;2.00;;;19.70;84.90;;;;;;5040093;28;20036;-84
2022/07/29 03:35:26;;;;;;;5.25;2.13;;;19.70;85.10;;;;;;5039776;28;20446;-84
2022/07/29 03:37:52;;;;;;;4.38;1.90;;;19.70;85.50;;;;;;5038903;28;20119;-83
2022/07/29 03:40:31;;;;;;;5.72;1.92;;;19.60;85.80;;;;;;5038707;28;20057;-84
2022/07/29 03:42:58;;;;;;;3.75;2.08;;;19.60;86.20;;;;;;5055146;28;20349;-83
2022/07/29 03:45:26;;;;;;;3.92;2.05;;;19.60;86.70;;;;;;5055421;28;20462;-84
2022/07/29 03:47:59;;;;;;;5.30;2.03;;;19.50;87.10;;;;;;5038832;28;20549;-84
2022/07/29 03:50:25;;;;;;;4.20;1.80;;;19.50;87.60;;;;;;5055435;28;20103;-83
2022/07/29 03:52:51;;;;;;;6.45;2.33;;;19.50;88.10;;;;;;5055729;28;20025;-83
2022/07/29 03:55:17;;;;;;;5.72;1.98;;;19.40;88.60;;;;;;5038998;28;20037;-84
2022/07/29 03:57:45;;;;;;;3.95;1.98;;;19.40;89.00;;;;;;5038614;28;20378;-84
2022/07/29 04:00:12;;;;;;;3.85;2.00;;;19.30;89.20;;;;;;5055136;28;20025;-83
2022/07/29 04:02:39;;;;;;;3.85;2.05;;;19.30;89.50;;;;;;5038576;28;20124;-83
2022/07/29 04:05:05;;;;;;;5.72;2.13;;;19.30;89.70;;;;;;5055220;28;20371;-84
2022/07/29 04:07:30;;;;;;;5.20;2.25;;;19.30;90.10;;;;;;5038477;28;20025;-84
2022/07/29 04:09:56;;;;;;;4.38;2.10;;;19.20;90.20;;;;;;5038455;28;20178;-83
2022/07/29 04:12:22;;;;;;;3.67;2.10;;;19.20;90.40;;;;;;5039404;28;20044;-82
2022/07/29 04:14:48;;;;;;;7.15;2.50;;;19.20;90.70;;;;;;5042470;28;20025;-82
2022/07/29 04:17:14;;;;;;;5.90;2.42;;;19.10;90.80;;;;;;5038416;28;20033;-82
2022/07/29 04:19:39;;;;;;;4.03;1.80;;;19.10;91.00;;;;;;5055437;28;20087;-83
2022/07/29 04:22:05;;;;;;;4.32;2.35;;;19.10;91.00;;;;;;5038860;28;20083;-83
2022/07/29 04:24:31;;;;;;;5.80;2.40;;;19.10;91.20;;;;;;5038109;28;20055;-83
2022/07/29 04:26:56;;;;;;;4.35;2.30;;;19.00;91.30;;;;;;5054943;28;20032;-82
2022/07/29 04:29:22;;;;;;;4.20;2.28;;;19.00;91.30;;;;;;5054745;28;20032;-82
2022/07/29 04:31:48;;;;;;;2.78;2.00;;;18.90;91.50;;;;;;5039542;28;20021;-83
2022/07/29 04:34:14;;;;;;;6.13;2.50;;;18.90;91.90;;;;;;5038434;28;20025;-82
2022/07/29 04:36:39;;;;;;;4.82;2.22;;;18.90;92.20;;;;;;5037803;28;20029;-83
2022/07/29 04:39:05;;;;;;;6.40;2.33;;;18.90;92.40;;;;;;5037829;28;20167;-82
2022/07/29 04:44:53;;;;;;;4.32;2.40;;;18.80;92.90;;;;;;5043124;28;20076;-83
2022/07/29 04:47:18;;;;;;;6.00;2.80;;;18.80;93.00;;;;;;5054840;28;20033;-83
2022/07/29 04:49:44;;;;;;;5.75;2.50;;;18.80;93.20;;;;;;5054876;28;20033;-83
2022/07/29 04:52:10;;;;;;;5.05;2.40;;;18.80;93.30;;;;;;5054223;28;20032;-85
2022/07/29 04:54:35;;;;;;;5.18;2.25;;;18.80;93.40;;;;;;5057692;28;20036;-85
2022/07/29 04:57:01;;;;;;;6.13;2.47;;;18.80;93.50;;;;;;5037862;28;20033;-85
2022/07/29 04:59:27;;;;;;;4.32;2.50;;;18.80;93.60;;;;;;5055819;28;20082;-85
2022/07/29 05:01:52;;;;;;;5.55;2.40;;;18.70;93.70;;;;;;5039160;28;20037;-85
2022/07/29 05:04:18;;;;;;;4.53;2.40;;;18.70;93.80;;;;;;5054953;28;20033;-85
2022/07/29 05:06:44;;;;;;;5.32;2.20;;;18.70;94.00;;;;;;5055160;28;20021;-85
2022/07/29 05:09:10;;;;;;;5.55;2.70;;;18.70;94.00;;;;;;5037900;28;20409;-84
2022/07/29 05:11:36;;;;;;;3.92;2.20;;;18.70;94.00;;;;;;5055700;28;20382;-85
2022/07/29 05:14:02;;;;;;;4.95;2.58;;;18.70;94.00;;;;;;5037963;28;20033;-85
2022/07/29 05:16:28;;;;;;;3.53;2.38;;;18.60;94.30;;;;;;5056862;28;20031;-85
2022/07/29 05:18:53;;;;;;;3.72;2.00;;;18.60;94.20;;;;;;5055489;28;20501;-84
2022/07/29 05:21:19;;;;;;;4.63;2.33;;;18.60;94.30;;;;;;5054883;28;20028;-85
2022/07/29 05:23:45;;;;;;;5.68;2.30;;;18.60;94.50;;;;;;5038812;28;20083;-84
2022/07/29 05:29:33;;;;;;;6.32;2.60;;;18.60;94.40;;;;;;5055918;28;20028;-85
2022/07/29 05:31:58;;;;;;;5.85;2.50;;;18.60;94.30;;;;;;5038000;28;20029;-84
2022/07/29 05:34:24;;;;;;;4.00;2.30;;;18.60;94.30;;;;;;5037676;28;20028;-84
2022/07/29 05:36:50;;;;;;;5.95;2.55;;;18.50;94.30;;;;;;5050579;23;20079;-90
2022/07/29 05:39:19;;;;;;;5.13;2.20;;;18.50;94.40;;;;;;5037780;28;20025;-91
2022/07/29 05:41:48;;;;;;;5.88;2.10;;;18.50;94.50;;;;;;5035399;28;20041;-92
2022/07/29 05:44:13;;;;;;;5.47;2.33;;;18.50;94.40;;;;;;5018178;28;20476;-90
2022/07/29 05:46:39;;;;;;;5.22;2.30;;;18.50;94.40;;;;;;5017731;28;20029;-90
2022/07/29 05:49:06;;;;;;;3.70;2.33;;;18.50;94.40;;;;;;5017055;28;20033;-90
2022/07/29 05:51:33;;;;;;;5.30;2.80;;;18.40;94.30;;;;;;5016672;28;20375;-90
2022/07/29 05:53:58;;;;;;;11.48;2.53;;;18.40;94.50;;;;;;5016743;28;20033;-92
2022/07/29 05:56:25;;;;;;;5.45;2.42;;;18.50;94.50;;;;;;5017798;28;20059;-90
2022/07/29 05:58:51;;;;;;;4.25;2.40;;;18.40;94.60;;;;;;5034479;28;20036;-90
2022/07/29 06:01:17;;;;;;;3.65;2.30;;;18.40;94.70;;;;;;5032860;28;20026;-90
2022/07/29 06:03:42;;;;;;;5.10;2.28;;;18.40;94.60;;;;;;5017529;28;20068;-96
2022/07/29 06:06:09;;;;;;;5.45;2.28;;;18.40;94.50;;;;;;5035181;28;20457;-95
2022/07/29 06:08:36;;;;;;;5.15;2.28;;;18.40;94.30;;;;;;5019275;28;20026;-94
2022/07/29 06:11:02;;;;;;;6.28;2.30;;;18.40;94.30;;;;;;5034479;28;20022;-94
2022/07/29 06:14:02;;;;;;;5.20;2.22;;;18.40;94.30;;;;;;5010396;28;20025;-96
2022/07/29 06:16:55;;;;;;;5.85;2.35;;;18.40;94.40;;;;;;5064407;28;20461;-96
2022/07/29 06:25:32;;;;;;;6.75;2.67;;;18.40;94.60;;;;;;5028138;28;20069;-94
2022/07/29 06:31:53;;;;;;;;;;;;;;;;;;;;;
2022/07/29 06:34:21;;;;;;;5.70;2.20;;;18.40;94.60;;;;;;5039022;28;20081;-95
2022/07/29 06:36:52;;;;;;;4.18;2.22;;;18.40;94.70;;;;;;5038599;28;20077;-95
2022/07/29 06:39:39;;;;;;;;;;;;;;;;;;;;;
2022/07/29 06:42:10;;;;;;;6.18;2.63;;;18.40;94.80;;;;;;5036026;28;20108;-95
2022/07/29 06:45:18;;;;;;;;;;;;;;;;;;;;;
2022/07/29 06:47:54;;;;;;;;;;;;;;;;;;;;;
2022/07/29 06:50:21;;;;;;;2.95;2.00;;;18.50;94.90;;;;;;5032674;28;20025;-96
2022/07/29 06:53:01;;;;;;;4.13;2.22;;;18.50;95.00;;;;;;5031299;28;20450;-96
2022/07/29 06:55:29;;;;;;;4.18;2.13;;;18.50;94.90;;;;;;5040355;28;20025;-95
2022/07/29 06:57:58;;;;;;;5.00;2.40;;;18.50;94.90;;;;;;5043716;28;20112;-95
2022/07/29 07:00:32;;;;;;;5.25;2.65;;;18.50;95.00;;;;;;5044120;28;20032;-95
2022/07/29 07:03:01;;;;;;;4.10;2.47;;;18.60;95.20;;;;;;5033947;28;20056;-94
2022/07/29 07:05:30;;;;;;;5.78;2.42;;;18.60;95.20;;;;;;5030114;28;20032;-95
2022/07/29 07:08:05;;;;;;;6.30;2.40;;;18.60;95.20;;;;;;5046545;28;20082;-95
2022/07/29 07:10:33;;;;;;;4.90;2.10;;;18.60;95.10;;;;;;5046076;28;20037;-96
2022/07/29 07:13:12;;;;;;;;;;;;;;;;;;;;;
2022/07/29 07:15:50;;;;;;;4.30;2.30;;;18.70;94.90;;;;;;5043460;28;20104;-95
2022/07/29 07:18:39;;;;;;;7.00;2.05;;;18.70;95.10;;;;;;5036199;28;20051;-95
2022/07/29 07:25:08;;;;;;;;;;;;;;;;;;;;;
2022/07/29 07:27:34;;;;;;;4.25;2.35;;;18.70;95.10;;;;;;5022357;28;20108;-95
2022/07/29 07:30:05;;;;;;;5.53;2.13;;;18.70;95.20;;;;;;5020611;28;20026;-95
2022/07/29 07:32:32;;;;;;;5.22;1.98;;;18.70;95.50;;;;;;5006621;28;20022;-95
2022/07/29 07:35:03;;;;;;;7.72;2.35;;;18.80;95.30;;;;;;5023674;28;20057;-95
2022/07/29 07:37:32;;;;;;;3.40;2.10;;;18.80;95.30;;;;;;5007807;28;20046;-95
2022/07/29 07:40:01;;;;;;;4.25;2.10;;;18.80;95.40;;;;;;5021651;28;20030;-95
2022/07/29 07:42:27;;;;;;;4.07;2.00;;;18.80;95.40;;;;;;5006947;28;20026;-96
2022/07/29 07:45:08;;;;;;;4.13;1.95;;;18.80;95.50;;;;;;5025292;28;20018;-95
2022/07/29 07:47:38;;;;;;;;;;;18.90;95.60;;;;;;5024763;28;20032;-95
2022/07/29 07:50:06;;;;;;;5.65;2.17;;;18.90;95.70;;;;;;5020294;28;19929;-96
2022/07/29 07:52:37;;;;;;;6.03;2.22;;;18.90;95.70;;;;;;5021932;28;20088;-95
2022/07/29 07:55:06;;;;;;;5.03;2.65;;;18.90;95.80;;;;;;4991070;28;20099;-95
2022/07/29 07:58:10;;;;;;;;;;;;;;;;;;;;;
2022/07/29 08:10:02;;;;;;;4.95;2.15;;;19.00;95.80;;;;;;5006485;28;20034;-96
2022/07/29 08:12:31;;;;;;;5.03;2.25;;;19.00;95.80;;;;;;5024574;28;20037;-96
2022/07/29 08:15:23;;;;;;;5.00;2.03;;;19.00;95.90;;;;;;5004004;28;20409;-95
2022/07/29 08:18:10;;;;;;;6.75;1.88;;;19.10;95.90;;;;;;5000234;28;20038;-96
2022/07/29 08:20:49;;;;;;;3.72;2.00;;;19.10;95.80;;;;;;5023483;28;20029;-96
2022/07/29 08:23:38;;;;;;;4.07;2.22;;;19.10;95.90;;;;;;5023490;28;20038;-95
2022/07/29 08:26:10;;;;;;;4.22;2.10;;;19.20;96.00;;;;;;5010253;28;20387;-93
2022/07/29 08:28:59;;;;;;;;;;;;;;;;;;;;;
2022/07/29 08:31:35;;;;;;;3.72;1.90;;;19.20;95.90;;;;;;5017731;28;20022;-96
2022/07/29 08:34:03;;;;;;;4.68;1.90;;;19.20;95.90;;;;;;5016303;28;20132;-96
2022/07/29 08:36:39;;;;;;;2.70;1.90;;;19.20;96.00;;;;;;5016906;28;20050;-95
2022/07/29 08:39:12;;;;;;;5.80;2.22;;;19.20;96.00;;;;;;5021021;28;20125;-95
2022/07/29 08:41:40;;;;;;;4.47;1.83;;;19.20;96.10;;;;;;5020275;28;20080;-96
2022/07/29 08:44:39;;;;;;;6.57;2.22;;;19.20;96.20;;;;;;5001029;28;20471;-95
2022/07/29 08:47:46;;;;;;;;;;;;;;;;;;;;;
2022/07/29 08:50:14;;;;;;;5.50;2.30;;;19.30;96.20;;;;;;5005999;28;20116;-96
2022/07/29 08:52:54;;;;;;;4.85;2.10;;;19.30;96.20;;;;;;4987427;28;20030;-96
2022/07/29 08:55:25;;;;;;;4.70;2.10;;;19.30;96.20;;;;;;5017951;28;20481;-95
2022/07/29 08:58:12;;;;;;;7.22;2.05;;;19.30;96.00;;;;;;5019409;28;20010;-96
2022/07/29 09:01:04;;;;;;;4.13;2.00;;;19.30;95.90;;;;;;4998557;28;20028;-94
2022/07/29 09:06:56;;;;;;;3.92;2.03;;;19.40;95.70;;;;;;5006177;28;20038;-96
2022/07/29 09:09:25;;;;;;;4.40;2.45;;;19.40;95.50;;;;;;5000464;28;20050;-95
2022/07/29 09:12:03;;;;;;;2.80;1.83;;;19.30;95.50;;;;;;4971711;28;20026;-95
2022/07/29 09:14:32;;;;;;;4.72;2.45;;;19.30;95.50;;;;;;4999300;28;20462;-96
2022/07/29 09:17:10;;;;;;;5.85;2.65;;;19.30;95.50;;;;;;5013510;28;20079;-95
2022/07/29 09:19:39;;;;;;;4.85;2.00;;;19.40;95.60;;;;;;5007211;28;20096;-95
2022/07/29 09:22:29;;;;;;;4.60;2.15;;;19.40;95.60;;;;;;5012428;28;20046;-96
2022/07/29 09:25:14;;;;;;;5.68;2.72;;;19.40;95.60;;;;;;5011525;28;20061;-95
2022/07/29 09:27:52;;;;;;;6.47;2.45;;;19.40;95.60;;;;;;4989256;28;20053;-95
2022/07/29 09:31:11;;;;;;;;;;;;;;;;;;;;;
2022/07/29 09:33:49;;;;;;;5.57;2.20;;;19.40;95.70;;;;;;5021363;28;20121;-95
2022/07/29 09:36:15;;;;;;;4.40;2.20;;;19.40;95.70;;;;;;4995863;28;20053;-95
2022/07/29 09:38:41;;;;;;;6.07;2.38;;;19.50;95.80;;;;;;5002199;28;20034;-94
2022/07/29 09:41:08;;;;;;;4.28;2.40;;;19.50;95.80;;;;;;5007608;28;20154;-94
2022/07/29 09:43:34;;;;;;;4.10;2.35;;;19.50;95.80;;;;;;5014505;28;20037;-94
2022/07/29 09:46:13;;;;;;;5.85;2.50;;;19.50;95.90;;;;;;5014451;28;20458;-93
2022/07/29 09:48:39;;;;;;;4.75;2.30;;;19.50;95.80;;;;;;5015149;28;20539;-93
2022/07/29 09:51:06;;;;;;;4.18;2.50;;;19.60;95.80;;;;;;5014413;28;20037;-94
2022/07/29 09:53:34;;;;;;;6.30;2.45;;;19.60;95.80;;;;;;4998163;28;20049;-94
2022/07/29 09:55:59;;;;;;;5.18;2.63;;;19.60;95.70;;;;;;5014609;28;20061;-93
2022/07/29 09:58:25;;;;;;;7.50;2.90;;;19.60;95.70;;;;;;4997534;28;20068;-93
2022/07/29 10:00:53;;;;;;;5.45;2.90;;;19.60;95.70;;;;;;5014138;28;20033;-92
2022/07/29 10:03:19;;;;;;;5.40;3.00;;;19.70;95.70;;;;;;4995600;28;20057;-91
2022/07/29 10:05:45;;;;;;;7.43;2.90;;;19.70;95.70;;;;;;4999150;28;20039;-95
2022/07/29 10:08:26;;;;;;;5.57;3.05;;;19.80;95.60;;;;;;4994637;28;20096;-94
2022/07/29 10:11:12;;;;;;;5.50;2.88;;;19.80;95.60;;;;;;4995119;28;20030;-94
2022/07/29 10:13:38;;;;;;;5.65;2.33;;;19.90;95.60;;;;;;4998278;28;20026;-94
2022/07/29 10:16:05;;;;;;;4.97;2.30;;;19.90;95.60;;;;;;5001599;28;20018;-93
2022/07/29 10:18:32;;;;;;;8.25;2.88;;;20.00;95.60;;;;;;5000916;28;20030;-92
2022/07/29 10:21:00;;;;;;;6.00;2.28;;;20.10;95.60;;;;;;4998658;28;20023;-94
2022/07/29 10:23:29;;;;;;;4.75;2.28;;;20.10;95.50;;;;;;4995552;28;20041;-93
2022/07/29 10:25:58;;;;;;;5.90;2.75;;;20.20;95.40;;;;;;4995200;28;20024;-94
2022/07/29 10:28:24;;;;;;;5.38;2.70;;;20.30;95.30;;;;;;4978775;28;20022;-95
2022/07/29 10:30:52;;;;;;;5.57;2.45;;;20.30;95.20;;;;;;4995295;28;20019;-92
2022/07/29 10:33:41;;;;;;;7.78;2.90;;;20.40;95.20;;;;;;4993717;28;20022;-94
2022/07/29 10:36:14;;;;;;;7.35;2.60;;;20.40;95.10;;;;;;4994851;28;20034;-88
2022/07/29 10:38:45;;;;;;;5.22;2.30;;;20.40;95.10;;;;;;4993983;28;20050;-89
2022/07/29 10:41:42;;;;;;;;;;;20.50;95.10;;;;;;4995312;28;20030;-90
2022/07/29 10:44:24;;;;;;;4.70;2.38;;;20.50;95.00;;;;;;4959819;28;19914;-91
2022/07/29 10:46:51;;;;;;;5.97;2.55;;;20.60;95.00;;;;;;4997219;28;20022;-89
2022/07/29 10:49:18;;;;;;;4.25;2.30;;;20.60;95.00;;;;;;5004392;28;20069;-91
2022/07/29 10:51:50;;;;;;;9.40;2.85;;;20.60;95.00;;;;;;5007684;28;20027;-90
2022/07/29 10:54:36;;;;;;;5.30;2.53;;;20.70;94.90;;;;;;5009199;28;20031;-91
2022/07/29 10:57:28;;;;;;;5.50;2.13;;;20.70;94.60;;;;;;5006383;28;20030;-91
2022/07/29 11:00:09;;;;;;;3.90;1.90;;;20.80;94.40;;;;;;5007035;28;20053;-91
2022/07/29 11:02:44;;;;;;;3.97;1.77;;;20.80;94.30;;;;;;5002184;28;20110;-91
2022/07/29 11:05:17;;;;;;;4.18;2.03;;;20.80;94.20;;;;;;4996454;28;20037;-91
2022/07/29 11:08:17;;;;;;;6.13;2.10;;;20.90;94.10;;;;;;4994391;28;20030;-92
2022/07/29 11:10:51;;;;;;;5.28;2.20;;;21.00;94.00;;;;;;4994103;28;20054;-90
2022/07/29 11:13:51;;;;;;;3.10;1.75;;;21.10;93.80;;;;;;4993991;28;20030;-90
2022/07/29 11:16:23;;;;;;;3.85;1.90;;;21.10;93.60;;;;;;4994308;28;20034;-90
2022/07/29 11:19:15;;;;;;;5.25;2.28;;;21.10;93.40;;;;;;4998669;28;20121;-91
2022/07/29 11:21:46;;;;;;;5.85;2.45;;;21.30;93.20;;;;;;4994534;28;20030;-89
2022/07/29 11:24:25;;;;;;;3.80;2.40;;;21.30;93.00;;;;;;4993817;28;20034;-89
2022/07/29 11:27:16;;;;;;;6.72;2.50;;;21.40;92.80;;;;;;4995462;28;20057;-89
2022/07/29 11:29:53;;;;;;;4.32;2.70;;;21.50;92.80;;;;;;4993837;28;20029;-90
2022/07/29 11:32:22;;;;;;;6.43;2.10;;;21.60;92.60;;;;;;4993793;28;20057;-91
2022/07/29 11:34:49;;;;;;;4.75;2.10;;;21.60;92.40;;;;;;4994443;28;20033;-91
2022/07/29 11:37:16;;;;;;;4.00;2.20;;;21.70;92.20;;;;;;4994391;28;20458;-90
2022/07/29 11:39:52;;;;;;;4.85;1.95;;;21.80;92.10;;;;;;4993876;28;20030;-91
2022/07/29 11:42:23;;;;;;;4.82;2.40;;;21.90;92.00;;;;;;4994624;28;20038;-90
2022/07/29 11:45:01;;;;;;;3.95;2.10;;;21.90;92.00;;;;;;4993788;28;20391;-90
2022/07/29 11:47:33;;;;;;;7.68;2.25;;;22.00;91.90;;;;;;4993546;28;20054;-90
2022/07/29 11:50:06;;;;;;;7.28;2.97;;;22.10;91.80;;;;;;4993845;28;20022;-91
2022/07/29 11:52:42;;;;;;;5.13;2.17;;;22.10;91.70;;;;;;4997067;28;20038;-92
2022/07/29 11:55:10;;;;;;;5.03;2.22;;;22.20;91.70;;;;;;4997214;28;20168;-90
2022/07/29 11:57:36;;;;;;;5.38;2.42;;;22.30;91.60;;;;;;4997281;28;20541;-89
2022/07/29 12:09:40;;;;;;;7.03;2.47;;;22.70;91.50;;;;;;4977975;28;20542;-89
2022/07/29 12:12:08;;;;;;;4.00;2.03;;;22.80;91.30;;;;;;4960378;28;20066;-90
2022/07/29 12:14:34;;;;;;;4.55;2.10;;;22.90;91.10;;;;;;4996350;28;20041;-90
2022/07/29 12:17:02;;;;;;;5.55;2.50;;;22.90;90.90;;;;;;4993875;28;20034;-90
2022/07/29 12:19:28;;;;;;;4.35;2.20;;;23.00;90.70;;;;;;4982445;28;20117;-90
2022/07/29 12:21:58;;;;;;;4.80;2.50;;;23.10;90.60;;;;;;4992481;28;20121;-89
2022/07/29 12:24:23;;;;;;;4.65;2.17;;;23.10;90.50;;;;;;4992710;28;20054;-88
2022/07/29 12:26:55;;;;;;;5.22;2.42;;;23.20;90.50;;;;;;4989377;28;20037;-88
2022/07/29 12:29:21;;;;;;;4.10;2.22;;;23.30;90.40;;;;;;5002382;28;20101;-88
2022/07/29 12:31:53;;;;;;;5.13;2.03;;;23.30;90.20;;;;;;5006917;28;20061;-88
2022/07/29 12:34:22;;;;;;;4.57;2.10;;;23.40;90.10;;;;;;5011372;28;20018;-92
2022/07/29 12:36:54;;;;;;;4.25;2.17;;;23.50;90.10;;;;;;5027014;28;20081;-88
2022/07/29 12:39:20;;;;;;;5.28;2.17;;;23.50;90.00;;;;;;5013728;28;20018;-90
2022/07/29 12:41:45;;;;;;;4.55;2.10;;;23.60;89.80;;;;;;5015925;28;20022;-89
2022/07/29 12:44:11;;;;;;;4.93;2.25;;;23.60;89.20;;;;;;5017932;28;20026;-95
2022/07/29 12:46:37;;;;;;;5.18;2.13;;;23.60;88.80;;;;;;5015735;28;20414;-93
2022/07/29 12:49:04;;;;;;;3.90;2.15;;;23.70;88.80;;;;;;4999628;28;20057;-94
2022/07/29 12:51:31;;;;;;;4.68;2.00;;;23.70;88.70;;;;;;5016682;28;20018;-93
2022/07/29 12:54:13;;;;;;;3.92;2.20;;;23.80;88.60;;;;;;5014904;28;20093;-90
2022/07/29 12:56:44;;;;;;;7.75;2.67;;;23.80;88.00;;;;;;5016160;28;20026;-91
2022/07/29 12:59:22;;;;;;;5.30;2.33;;;23.80;87.90;;;;;;5017673;28;20022;-92
2022/07/29 13:01:52;;;;;;;6.53;2.00;;;23.80;88.20;;;;;;5015218;28;20053;-92
2022/07/29 13:04:32;;;;;;;5.55;1.90;;;23.90;87.90;;;;;;5015710;28;20466;-92
2022/07/29 13:07:01;;;;;;;4.75;2.20;;;24.00;87.20;;;;;;5016802;28;20025;-92
2022/07/29 13:09:45;;;;;;;4.80;2.30;;;24.10;86.90;;;;;;5015679;28;20033;-91
2022/07/29 13:12:13;;;;;;;5.38;2.50;;;24.10;86.50;;;;;;5008733;28;20030;-92
2022/07/29 13:15:13;;;;;;;3.30;2.10;;;24.20;86.10;;;;;;5015119;28;20130;-92
2022/07/29 13:17:43;;;;;;;5.18;2.30;;;24.30;86.10;;;;;;5014809;28;20106;-93
2022/07/29 13:20:14;;;;;;;4.35;2.17;;;24.30;85.90;;;;;;5014464;28;20030;-90
2022/07/29 13:22:47;;;;;;;5.20;2.42;;;24.40;85.70;;;;;;5009497;28;20049;-93
2022/07/29 13:25:13;;;;;;;5.10;2.33;;;24.50;85.10;;;;;;4999523;28;20053;-94
2022/07/29 13:27:39;;;;;;;5.13;2.38;;;24.50;84.40;;;;;;5006647;28;20030;-93
2022/07/29 13:30:09;;;;;;;5.78;1.85;;;24.60;84.00;;;;;;5003476;28;20022;-95
2022/07/29 13:32:38;;;;;;;6.20;2.05;;;24.60;83.60;;;;;;5018610;28;20033;-93
2022/07/29 13:35:08;;;;;;;4.45;2.15;;;24.70;83.50;;;;;;5004620;28;20088;-96
2022/07/29 13:37:37;;;;;;;4.00;1.80;;;24.80;83.20;;;;;;5003614;28;20116;-93
2022/07/29 13:40:07;;;;;;;3.22;1.50;;;24.80;83.00;;;;;;5013877;28;20473;-95
2022/07/29 13:42:33;;;;;;;2.80;1.70;;;24.90;82.90;;;;;;5015018;28;20038;-79
2022/07/29 13:45:00;;;;;;;5.25;2.85;;;24.90;82.50;;;;;;4999756;28;20426;-79
2022/07/29 13:47:26;;;;;;;3.33;1.60;;;25.00;81.60;;;;;;5010469;28;20018;-79
2022/07/29 13:49:52;;;;;;;5.65;2.10;;;25.10;81.60;;;;;;5006200;28;20026;-79
2022/07/29 13:52:19;;;;;;;4.43;2.00;;;25.10;82.00;;;;;;5013658;28;20517;-79
2022/07/29 13:54:45;;;;;;;5.90;2.13;;;25.20;80.70;;;;;;4984979;28;20113;-79
2022/07/29 13:57:12;;;;;;;5.35;1.90;;;25.30;80.30;;;;;;5001091;28;20049;-80
2022/07/29 13:59:38;;;;;;;5.13;2.08;;;25.30;80.00;;;;;;4993942;28;20034;-79
2022/07/29 14:02:05;;;;;;;4.55;1.80;;;25.40;79.50;;;;;;4998619;28;20014;-79
2022/07/29 14:04:31;;;;;;;5.72;2.40;;;25.50;79.20;;;;;;5005482;28;20469;-79